createdAt,value
2023-10-09T00:01:39.022Z,3.63
2023-10-09T00:04:23.952Z,2.20
2023-10-09T00:07:08.899Z,2.22
2023-10-09T00:09:55.581Z,3.90
2023-10-09T00:12:44.459Z,3.50
2023-10-09T00:15:33.517Z,4.00
2023-10-09T00:18:23.876Z,4.45
2023-10-09T00:21:15.993Z,3.13
2023-10-09T00:24:04.114Z,4.30
2023-10-09T00:26:49.776Z,3.90
2023-10-09T00:29:35.310Z,5.13
2023-10-09T00:32:23.276Z,3.35
2023-10-09T00:35:26.673Z,1.80
2023-10-09T00:38:20.458Z,3.42
2023-10-09T00:41:05.382Z,2.65
2023-10-09T00:43:50.239Z,2.45
2023-10-09T00:46:35.601Z,2.58
2023-10-09T00:49:23.079Z,6.15
2023-10-09T00:52:18.380Z,2.20
2023-10-09T00:55:24.507Z,3.03
2023-10-09T00:58:15.229Z,2.00
2023-10-09T01:01:00.183Z,2.35
2023-10-09T01:03:45.791Z,1.80
2023-10-09T01:06:30.956Z,5.15
2023-10-09T01:09:20.767Z,1.58
2023-10-09T01:12:05.997Z,2.22
2023-10-09T01:14:55.993Z,2.05
2023-10-09T01:17:45.858Z,2.42
2023-10-09T01:20:31.393Z,1.45
2023-10-09T01:23:16.231Z,2.13
2023-10-09T01:26:00.731Z,3.35
2023-10-09T01:28:46.553Z,4.57
2023-10-09T01:31:34.383Z,1.30
2023-10-09T01:34:24.459Z,3.60
2023-10-09T01:37:19.042Z,1.88
2023-10-09T01:40:30.411Z,1.33
2023-10-09T01:43:19.443Z,1.88
2023-10-09T01:46:05.346Z,3.97
2023-10-09T01:48:50.512Z,1.88
2023-10-09T01:51:36.911Z,3.72
2023-10-09T01:54:42.192Z,2.42
2023-10-09T01:57:30.452Z,7.50
2023-10-09T02:01:07.298Z,2.53
2023-10-09T02:03:52.585Z,3.90
2023-10-09T02:06:38.364Z,3.25
2023-10-09T02:09:30.698Z,2.88
2023-10-09T02:12:15.848Z,2.53
2023-10-09T02:15:06.966Z,3.13
2023-10-09T02:18:01.357Z,2.25
2023-10-09T02:20:48.496Z,3.22
2023-10-09T02:23:44.775Z,1.98
2023-10-09T02:26:49.428Z,4.20
2023-10-09T02:29:35.734Z,2.25
2023-10-09T02:32:26.276Z,3.78
2023-10-09T02:35:40.777Z,1.70
2023-10-09T02:38:28.083Z,3.45
2023-10-09T02:41:12.817Z,3.58
2023-10-09T02:44:10.879Z,2.83
2023-10-09T02:46:58.204Z,2.28
2023-10-09T02:49:43.524Z,4.93
2023-10-09T02:52:33.842Z,3.67
2023-10-09T02:55:26.976Z,9.38
2023-10-09T02:58:21.271Z,2.22
2023-10-09T03:01:13.737Z,4.03
2023-10-09T03:04:02.938Z,4.07
2023-10-09T03:06:51.435Z,2.60
2023-10-09T03:09:36.428Z,6.30
2023-10-09T03:12:27.031Z,2.50
2023-10-09T03:15:11.845Z,3.90
2023-10-09T03:17:56.567Z,4.57
2023-10-09T03:20:41.603Z,4.22
2023-10-09T03:23:26.546Z,4.55
2023-10-09T03:26:21.214Z,3.95
2023-10-09T03:29:10.516Z,5.25
2023-10-09T03:31:57.076Z,4.13
2023-10-09T03:34:42.672Z,1.90
2023-10-09T03:37:36.214Z,4.15
2023-10-09T03:40:22.318Z,2.40
2023-10-09T03:43:06.692Z,5.80
2023-10-09T03:45:54.618Z,4.13
2023-10-09T03:48:39.453Z,1.85
2023-10-09T03:51:26.594Z,1.92
2023-10-09T03:54:13.939Z,3.17
2023-10-09T03:56:59.453Z,2.10
2023-10-09T03:59:47.538Z,4.43
2023-10-09T04:02:32.410Z,3.58
2023-10-09T04:05:18.169Z,4.28
2023-10-09T04:08:12.470Z,3.97
2023-10-09T04:11:04.579Z,4.10
2023-10-09T04:13:50.252Z,3.85
2023-10-09T04:16:35.834Z,4.32
2023-10-09T04:19:22.589Z,2.10
2023-10-09T04:22:09.841Z,2.95
2023-10-09T04:24:54.340Z,2.25
2023-10-09T04:27:39.526Z,3.30
2023-10-09T04:30:26.497Z,2.88
2023-10-09T04:33:25.759Z,2.03
2023-10-09T04:36:19.731Z,3.42
2023-10-09T04:39:04.929Z,6.45
2023-10-09T04:41:49.874Z,8.80
2023-10-09T04:44:37.379Z,5.13
2023-10-09T04:47:26.055Z,2.42
2023-10-09T04:50:12.177Z,3.83
2023-10-09T04:53:05.430Z,2.25
2023-10-09T04:55:57.642Z,3.97
2023-10-09T04:58:47.001Z,3.25
2023-10-09T05:01:44.231Z,2.83
2023-10-09T05:04:37.803Z,4.13
2023-10-09T05:07:45.302Z,2.63
2023-10-09T05:10:32.654Z,5.00
2023-10-09T05:13:36.741Z,3.33
2023-10-09T05:16:29.198Z,3.17
2023-10-09T05:19:33.972Z,3.70
2023-10-09T05:22:36.731Z,4.00
2023-10-09T05:25:46.324Z,3.88
2023-10-09T05:29:19.735Z,3.28
2023-10-09T05:32:24.625Z,2.78
2023-10-09T05:35:30.495Z,6.10
2023-10-09T05:38:23.896Z,3.78
2023-10-09T05:41:27.480Z,3.72
2023-10-09T05:44:38.574Z,7.88
2023-10-09T05:47:29.689Z,4.47
2023-10-09T05:50:17.230Z,5.25
2023-10-09T05:53:07.088Z,2.55
2023-10-09T05:56:11.262Z,5.07
2023-10-09T05:59:25.421Z,4.00
2023-10-09T06:02:33.358Z,2.95
2023-10-09T06:10:00.644Z,2.78
2023-10-09T06:17:00.489Z,3.13
2023-10-09T06:19:45.322Z,5.28
2023-10-09T06:23:26.335Z,5.25
2023-10-09T06:26:24.405Z,4.03
2023-10-09T06:29:15.139Z,5.30
2023-10-09T06:32:16.971Z,4.00
2023-10-09T06:35:21.609Z,4.32
2023-10-09T06:38:34.142Z,4.40
2023-10-09T06:41:35.178Z,4.03
2023-10-09T06:44:39.870Z,3.20
2023-10-09T06:47:26.769Z,4.05
2023-10-09T06:50:21.170Z,3.30
2023-10-09T06:53:11.929Z,3.13
2023-10-09T06:56:05.981Z,3.22
2023-10-09T06:58:55.508Z,4.03
2023-10-09T07:01:44.243Z,6.13
2023-10-09T07:04:31.929Z,5.30
2023-10-09T07:07:21.371Z,1.98
2023-10-09T07:10:40.546Z,3.22
2023-10-09T07:16:29.413Z,3.10
2023-10-09T07:19:47.359Z,3.17
2023-10-09T07:22:47.246Z,3.25
2023-10-09T07:25:51.141Z,3.70
2023-10-09T07:31:40.182Z,4.78
2023-10-09T07:34:40.690Z,3.08
2023-10-09T07:37:35.775Z,3.85
2023-10-09T07:40:58.476Z,4.13
2023-10-09T07:44:30.915Z,2.75
2023-10-09T07:47:20.150Z,2.78
2023-10-09T07:50:11.606Z,2.40
2023-10-09T07:53:48.055Z,3.03
2023-10-09T07:57:37.881Z,4.93
2023-10-09T08:01:00.942Z,2.97
2023-10-09T08:03:58.635Z,6.40
2023-10-09T08:07:02.535Z,3.65
2023-10-09T08:10:19.547Z,4.35
2023-10-09T08:13:23.264Z,2.80
2023-10-09T08:16:18.966Z,4.18
2023-10-09T08:19:23.800Z,2.85
2023-10-09T08:22:37.686Z,3.95
2023-10-09T08:25:32.579Z,3.00
2023-10-09T08:28:35.904Z,3.40
2023-10-09T08:31:45.529Z,4.25
2023-10-09T08:38:10.958Z,2.92
2023-10-09T08:41:23.239Z,4.13
2023-10-09T08:44:12.830Z,4.75
2023-10-09T08:47:01.908Z,2.75
2023-10-09T08:49:48.993Z,4.28
2023-10-09T08:52:35.986Z,5.55
2023-10-09T08:55:21.239Z,6.53
2023-10-09T08:58:13.537Z,3.42
2023-10-09T09:01:01.212Z,1.83
2023-10-09T09:03:47.804Z,4.05
2023-10-09T09:06:41.537Z,3.30
2023-10-09T09:10:19.946Z,3.05
2023-10-09T09:13:21.844Z,3.55
2023-10-09T09:16:22.529Z,3.75
2023-10-09T09:19:11.293Z,3.78
2023-10-09T09:22:11.870Z,4.60
2023-10-09T09:25:09.770Z,3.30
2023-10-09T09:27:57.675Z,4.72
2023-10-09T09:30:42.866Z,4.15
2023-10-09T09:33:33.481Z,2.70
2023-10-09T09:36:34.306Z,1.60
2023-10-09T09:39:56.223Z,2.25
2023-10-09T09:42:49.731Z,2.65
2023-10-09T09:46:10.580Z,5.45
2023-10-09T09:49:17.488Z,4.30
2023-10-09T09:52:10.390Z,3.00
2023-10-09T09:54:55.168Z,2.75
2023-10-09T09:57:41.576Z,2.40
2023-10-09T10:00:40.932Z,2.58
2023-10-09T10:03:48.664Z,2.22
2023-10-09T10:06:39.319Z,3.97
2023-10-09T10:09:45.963Z,5.15
2023-10-09T10:12:59.013Z,4.05
2023-10-09T10:16:02.961Z,4.35
2023-10-09T10:19:13.117Z,4.53
2023-10-09T10:23:11.795Z,5.47
2023-10-09T10:26:31.247Z,5.45
2023-10-09T10:29:37.609Z,3.17
2023-10-09T10:32:24.217Z,6.47
2023-10-09T10:35:12.130Z,3.60
2023-10-09T10:38:22.209Z,3.40
2023-10-09T10:41:14.071Z,3.97
2023-10-09T10:44:01.524Z,3.83
2023-10-09T10:47:32.893Z,2.60
2023-10-09T10:50:30.580Z,4.85
2023-10-09T10:53:20.047Z,4.18
2023-10-09T10:56:17.892Z,3.30
2023-10-09T11:07:59.341Z,3.95
2023-10-09T11:11:16.724Z,3.13
2023-10-09T11:18:57.653Z,3.75
2023-10-09T11:21:43.248Z,3.65
2023-10-09T11:24:33.901Z,4.70
2023-10-09T11:27:25.147Z,3.05
2023-10-09T11:30:22.095Z,3.60
2023-10-09T11:33:14.631Z,5.40
2023-10-09T11:35:59.800Z,2.13
2023-10-09T11:38:45.981Z,2.58
2023-10-09T11:41:36.116Z,4.25
2023-10-09T11:44:39.799Z,2.05
2023-10-09T11:47:35.122Z,2.30
2023-10-09T11:50:21.274Z,2.97
2023-10-09T11:53:10.090Z,2.55
2023-10-09T11:55:55.150Z,3.50
2023-10-09T11:58:41.105Z,3.17
2023-10-09T12:01:27.148Z,5.47
2023-10-09T12:04:13.729Z,4.90
2023-10-09T12:07:06.801Z,3.63
2023-10-09T12:09:56.801Z,3.38
2023-10-09T12:12:46.951Z,2.47
2023-10-09T12:15:38.907Z,2.75
2023-10-09T12:18:24.736Z,4.00
2023-10-09T12:21:16.188Z,2.05
2023-10-09T12:24:02.675Z,3.60
2023-10-09T12:26:58.703Z,3.33
2023-10-09T12:29:45.554Z,3.30
2023-10-09T12:32:35.834Z,3.58
2023-10-09T12:35:20.917Z,4.03
2023-10-09T12:38:10.850Z,3.45
2023-10-09T12:41:23.294Z,3.72
2023-10-09T12:44:15.375Z,3.78
2023-10-09T12:47:05.100Z,3.17
2023-10-09T12:49:50.348Z,2.92
2023-10-09T12:52:37.548Z,4.13
2023-10-09T12:55:22.478Z,4.38
2023-10-09T12:58:16.142Z,2.65
2023-10-09T13:01:09.880Z,2.85
2023-10-09T13:03:54.892Z,3.88
2023-10-09T13:06:44.312Z,4.05
2023-10-09T13:09:44.630Z,2.70
2023-10-09T13:12:29.656Z,3.72
2023-10-09T13:15:14.389Z,7.03
2023-10-09T13:17:59.540Z,4.47
2023-10-09T13:20:46.096Z,4.28
2023-10-09T13:23:40.638Z,3.40
2023-10-09T13:26:34.772Z,2.88
2023-10-09T13:29:26.205Z,3.90
2023-10-09T13:32:15.196Z,3.50
2023-10-09T13:35:03.398Z,3.40
2023-10-09T13:37:54.549Z,3.83
2023-10-09T13:40:39.426Z,6.05
2023-10-09T13:43:26.298Z,5.30
2023-10-09T13:46:17.985Z,6.05
2023-10-09T13:49:02.990Z,3.55
2023-10-09T13:51:48.074Z,2.80
2023-10-09T13:54:32.907Z,3.38
2023-10-09T13:57:17.975Z,2.63
2023-10-09T14:00:04.767Z,4.80
2023-10-09T14:02:51.980Z,4.72
2023-10-09T14:05:37.899Z,3.08
2023-10-09T14:08:23.431Z,5.75
2023-10-09T14:11:13.868Z,5.10
2023-10-09T14:14:11.297Z,5.70
2023-10-09T14:16:57.884Z,8.13
2023-10-09T14:19:50.447Z,8.18
2023-10-09T14:22:38.690Z,5.93
2023-10-09T14:25:24.099Z,5.22
2023-10-09T14:28:09.760Z,8.48
2023-10-09T14:30:59.678Z,6.82
2023-10-09T14:33:51.842Z,5.68
2023-10-09T14:36:37.621Z,4.28
2023-10-09T14:39:27.049Z,6.13
2023-10-09T14:42:12.139Z,6.85
2023-10-09T14:44:57.382Z,6.68
2023-10-09T14:47:42.996Z,7.38
2023-10-09T14:50:27.933Z,6.75
2023-10-09T14:53:13.548Z,8.05
2023-10-09T14:55:59.994Z,12.40
2023-10-09T14:58:47.214Z,11.27
2023-10-09T15:01:32.422Z,11.85
2023-10-09T15:04:18.086Z,11.13
2023-10-09T15:07:07.243Z,10.32
2023-10-09T15:09:52.601Z,8.48
2023-10-09T15:12:43.070Z,9.93
2023-10-09T15:15:31.453Z,8.00
2023-10-09T15:18:19.544Z,9.82
2023-10-09T15:21:06.559Z,8.85
2023-10-09T15:23:54.936Z,8.82
2023-10-09T15:26:40.447Z,7.57
2023-10-09T15:29:30.970Z,9.07
2023-10-09T15:32:16.047Z,12.68
2023-10-09T15:35:03.987Z,11.43
2023-10-09T15:37:52.804Z,13.68
2023-10-09T15:40:39.546Z,17.63
2023-10-09T15:43:25.621Z,17.83
2023-10-09T15:46:16.999Z,18.58
2023-10-09T15:49:02.457Z,10.60
2023-10-09T15:51:47.690Z,15.27
2023-10-09T15:54:32.345Z,9.70
2023-10-09T16:00:10.021Z,12.50
2023-10-09T16:02:57.380Z,14.70
2023-10-09T16:05:42.500Z,14.90
2023-10-09T16:08:28.509Z,10.50
2023-10-09T16:11:18.862Z,12.63
2023-10-09T16:14:09.701Z,11.30
2023-10-09T16:16:55.970Z,12.05
2023-10-09T16:19:41.745Z,12.65
2023-10-09T16:25:14.042Z,14.15
2023-10-09T16:27:59.318Z,11.95
2023-10-09T16:30:43.843Z,18.83
2023-10-09T16:33:29.525Z,14.13
2023-10-09T16:36:16.074Z,17.73
2023-10-09T16:39:00.594Z,15.55
2023-10-09T16:41:46.577Z,15.40
2023-10-09T16:44:34.752Z,14.38
2023-10-09T16:47:19.920Z,14.32
2023-10-09T16:50:11.902Z,17.27
2023-10-09T16:52:57.053Z,20.20
2023-10-09T16:55:42.207Z,20.15
2023-10-09T16:58:26.945Z,15.43
2023-10-09T17:01:12.712Z,13.00
2023-10-09T17:03:58.362Z,12.55
2023-10-09T17:06:51.762Z,12.55
2023-10-09T17:09:36.513Z,14.10
2023-10-09T17:12:21.832Z,12.13
2023-10-09T17:15:07.799Z,16.70
2023-10-09T17:17:52.448Z,15.00
2023-10-09T17:20:41.225Z,14.18
2023-10-09T17:23:26.143Z,17.00
2023-10-09T17:26:15.259Z,17.42
2023-10-09T17:29:00.474Z,18.95
2023-10-09T17:31:45.751Z,14.43
2023-10-09T17:34:33.785Z,16.27
2023-10-09T17:37:18.760Z,18.77
2023-10-09T17:40:07.080Z,20.80
2023-10-09T17:42:53.648Z,19.75
2023-10-09T17:45:41.561Z,24.42
2023-10-09T17:48:26.278Z,28.05
2023-10-09T17:51:11.388Z,32.90
2023-10-09T17:53:56.249Z,29.02
2023-10-09T17:56:41.087Z,29.13
2023-10-09T17:59:27.801Z,26.20
2023-10-09T18:02:13.034Z,28.27
2023-10-09T18:04:58.658Z,25.40
2023-10-09T18:07:44.902Z,25.08
2023-10-09T18:10:34.061Z,31.40
2023-10-09T18:13:19.609Z,31.80
2023-10-09T18:16:10.306Z,31.55
2023-10-09T18:18:56.623Z,31.35
2023-10-09T18:21:41.730Z,29.38
2023-10-09T18:24:26.666Z,24.77
2023-10-09T18:27:17.218Z,28.98
2023-10-09T18:30:01.715Z,24.00
2023-10-09T18:32:47.106Z,24.10
2023-10-09T18:35:33.795Z,26.80
2023-10-09T18:38:18.882Z,27.00
2023-10-09T18:41:06.471Z,36.20
2023-10-09T18:43:53.633Z,30.83
2023-10-09T18:46:38.485Z,34.47
2023-10-09T18:49:23.416Z,30.90
2023-10-09T18:52:10.766Z,39.28
2023-10-09T18:54:56.630Z,33.08
2023-10-09T18:57:43.429Z,36.22
2023-10-09T19:00:31.183Z,38.45
2023-10-09T19:03:17.371Z,37.83
2023-10-09T19:06:08.555Z,41.67
2023-10-09T19:11:40.709Z,37.47
2023-10-09T19:14:26.302Z,41.60
2023-10-09T19:17:12.094Z,41.60
2023-10-09T19:19:57.796Z,35.53
2023-10-09T19:22:42.866Z,34.53
2023-10-09T19:25:27.955Z,32.95
2023-10-09T19:28:12.706Z,39.25
2023-10-09T19:31:10.134Z,39.30
2023-10-09T19:33:55.177Z,60.33
2023-10-09T19:36:41.574Z,80.28
2023-10-09T19:39:31.906Z,68.18
2023-10-09T19:42:17.247Z,67.22
2023-10-09T19:45:03.625Z,65.13
2023-10-09T19:47:51.559Z,66.57
2023-10-09T19:50:36.914Z,68.88
2023-10-09T19:53:21.808Z,70.10
2023-10-09T19:56:09.185Z,74.72
2023-10-09T19:58:57.051Z,75.68
2023-10-09T20:01:41.899Z,68.90
2023-10-09T20:04:26.508Z,69.03
2023-10-09T20:07:12.071Z,64.72
2023-10-09T20:09:58.749Z,55.05
2023-10-09T20:12:43.387Z,51.38
2023-10-09T20:15:28.002Z,48.80
2023-10-09T20:18:13.473Z,48.42
2023-10-09T20:23:45.509Z,44.78
2023-10-09T20:26:30.320Z,44.92
2023-10-09T20:32:00.406Z,49.63
2023-10-09T20:34:45.208Z,57.17
2023-10-09T20:37:30.044Z,45.53
2023-10-09T20:40:21.543Z,45.00
2023-10-09T20:43:06.161Z,41.90
2023-10-09T20:45:51.427Z,52.00
2023-10-09T20:48:37.896Z,53.15
2023-10-09T20:51:23.077Z,54.47
2023-10-09T20:54:09.327Z,50.80
2023-10-09T20:56:53.920Z,43.45
2023-10-09T20:59:42.711Z,57.67
2023-10-09T21:02:27.849Z,46.95
2023-10-09T21:05:14.747Z,52.25
2023-10-09T21:07:59.894Z,62.95
2023-10-09T21:10:44.815Z,59.97
2023-10-09T21:16:16.531Z,51.90
2023-10-09T21:19:01.355Z,47.92
2023-10-09T21:21:46.316Z,46.83
2023-10-09T21:24:31.715Z,41.20
2023-10-09T21:27:17.367Z,43.00
2023-10-09T21:30:04.781Z,38.83
2023-10-09T21:32:49.827Z,39.13
2023-10-09T21:35:38.215Z,38.33
2023-10-09T21:38:25.048Z,31.48
2023-10-09T21:41:14.372Z,36.58
2023-10-09T21:43:59.331Z,32.75
2023-10-09T21:46:43.792Z,33.88
2023-10-09T21:52:14.751Z,35.78
2023-10-09T21:54:59.277Z,26.08
2023-10-09T22:00:34.627Z,27.23
2023-10-09T22:03:21.626Z,19.10
2023-10-09T22:06:06.334Z,22.80
2023-10-09T22:08:51.577Z,21.13
2023-10-09T22:14:22.626Z,19.65
2023-10-09T22:17:08.096Z,16.73
2023-10-09T22:19:56.502Z,16.48
2023-10-09T22:22:44.801Z,13.10
2023-10-09T22:25:30.561Z,14.82
2023-10-09T22:28:15.151Z,15.27
2023-10-09T22:31:11.012Z,15.50
2023-10-09T22:34:04.066Z,15.02
2023-10-09T22:36:54.375Z,13.90
2023-10-09T22:39:41.567Z,15.23
2023-10-09T22:42:27.648Z,20.85
2023-10-09T22:45:14.694Z,21.20
2023-10-09T22:48:01.003Z,21.15
2023-10-09T22:50:47.301Z,17.20
2023-10-09T22:53:38.252Z,22.80
2023-10-09T22:56:23.723Z,20.90
2023-10-09T22:59:20.821Z,19.40
2023-10-09T23:02:05.384Z,21.90
2023-10-09T23:07:41.954Z,17.60
2023-10-09T23:10:27.195Z,17.88
2023-10-09T23:13:17.894Z,15.75
2023-10-09T23:16:09.067Z,15.25
2023-10-09T23:22:20.846Z,20.30
2023-10-09T23:25:08.912Z,21.83
2023-10-09T23:28:09.349Z,18.50
2023-10-09T23:30:54.188Z,16.02
2023-10-09T23:33:38.994Z,14.85
2023-10-09T23:36:29.102Z,15.93
2023-10-09T23:39:15.970Z,15.05
2023-10-09T23:42:02.693Z,14.88
2023-10-09T23:44:48.412Z,15.63
2023-10-09T23:47:33.964Z,15.88
2023-10-09T23:50:19.105Z,14.55
2023-10-09T23:55:52.938Z,15.88
2023-10-09T23:58:38.366Z,12.73
